This is the latest recevied weather packets stored in our database for station/object W4MLN-3. If no packets are shown the sender has not sent any weather packets the latest 10 day(s).
| Time | Temp. | Humidity | Pressure | Rain* | Wind** | Luminosity | Snow |
|---|---|---|---|---|---|---|---|
| 1788109203 | 26.67° C | 69% | 1025.8 hPa | 0 mm | - | - | - |
| 1788108903 | 26.11° C | 68% | 1025.9 hPa | 0 mm | - | - | - |
| 1788108603 | 26.11° C | 69% | 1026 hPa | 0 mm | - | - | - |
| 1788108303 | 26.67° C | 68% | 1026 hPa | 0 mm | - | - | - |
| 1788108024 | 26.67° C | 68% | 1026 hPa | 0 mm | - | - | - |
| 1788107703 | 26.11° C | 70% | 1026.1 hPa | 0 mm | - | - | - |
| 1788107403 | 26.11° C | 68% | 1026.1 hPa | 0 mm | - | - | - |
| 1788107103 | 25.56° C | 72% | 1026.1 hPa | 0 mm | - | - | - |
| 1788106824 | 25.56° C | 73% | 1026.2 hPa | 0 mm | - | - | - |
| 1788106503 | 25° C | 73% | 1026.2 hPa | 0 mm | - | - | - |
| 1788106224 | 24.44° C | 75% | 1026.2 hPa | 0 mm | - | - | - |
| 1788105903 | 24.44° C | 75% | 1026.2 hPa | 0 mm | - | - | - |
| 1788105624 | 23.89° C | 78% | 1026.3 hPa | 0 mm | - | - | - |
| 1788105303 | 23.33° C | 79% | 1026.3 hPa | 0 mm | - | - | - |
| 1788105003 | 22.78° C | 79% | 1026.3 hPa | 0 mm | - | - | - |
| 1788104703 | 22.78° C | 79% | 1026.5 hPa | 0 mm | - | - | - |
| 1788104412 | 22.78° C | 79% | 1026.5 hPa | 0 mm | - | - | - |
| 1788104103 | 22.22° C | 80% | 1026.3 hPa | 0 mm | - | - | - |
| 1788103803 | 22.22° C | 80% | 1026.3 hPa | 0 mm | - | - | - |
| 1788103503 | 22.22° C | 81% | 1026.3 hPa | 0 mm | - | - | - |
| 1788103203 | 22.22° C | 83% | 1026.4 hPa | 0 mm | - | - | - |
| 1788102904 | 22.22° C | 82% | 1026.3 hPa | 0 mm | - | - | - |
| 1788102603 | 21.67° C | 83% | 1026.3 hPa | 0 mm | - | - | - |
| 1788102303 | 21.67° C | 82% | 1026.3 hPa | 0 mm | - | - | - |
| 1788102003 | 21.67° C | 82% | 1026.3 hPa | 0 mm | - | - | - |
* Rain latest hour (hover to see other rain measurements)
** Current wind speed in m/s (hover to see current wind gust speed)